Hathaway, MT (59333)

6:53 AM MST on February 07, 2016 (GMT -0700)
Graveyard Creek Road | | Change Station
CLOSE
Current Station
Personal Weather Station
Location: Miles City, MT
Elevation: 3028 ft
Nearby Weather Stations
Active Advisory: High Wind Warning

Elev 3028 ft 46.18 °N, 106.07 °W | Updated 13 minutes ago

Clear
Clear
30.2 °F
Feels Like 21 °F
N
11.4
Wind Variable Wind from WNW

Today
High -- | Low -- °F
--% Chance of Precip.
Yesterday
High -- | Low -- °F
Precip. -- in
Pressure 30.23 in
Visibility 10.0 miles
Clouds Clear
Windchill 21 °F
Dew Point 15 °F
Humidity 53%
Rainfall 0.00 in
Snow Depth Not available.
7:20 AM 5:17 PM
Waning Crescent, 1% visible
METAR KMLS 071253Z AUTO 31024G37KT 10SM CLR 01/M10 A3018 RMK AO2 PK WND 31037/1248 SLP237 T00111100
Pressure 30.23 in
Visibility 10.0 miles
Clouds Clear
Windchill 21 °F
Dew Point 15 °F
Humidity 53%
Rainfall 0.00 in
Snow Depth Not available.
7:20 AM 5:17 PM
Waning Crescent, 1% visible
METAR KMLS 071253Z AUTO 31024G37KT 10SM CLR 01/M10 A3018 RMK AO2 PK WND 31037/1248 SLP237 T00111100

10-Day Weather Forecast

Almanac

Astronomy

Feb. 07, 2016 Rise Set
Actual Time
Civil Twilight
Nautical Twilight
Astronomical Twilight
Moon
Length of Visible Light
Length of Day
Tomorrow will be .
, % of the Moon is Illuminated

Today's Extremes

State Highs State Lows

Community

WunderPhotos

Upload Photos

1,891,190 photos uploaded!

WunderBlog® & News

Nearby

Air Quality

  Air Quality AQ Index Pollutant
Not available.

Snow Depth

Station Depth Elevation

Earthquake Activity

City Distance Mag. Time & Date
Minimum magnitude displayed is 2.5.

Coastal Water Temperatures

Place Temperature

Stations

Nearby Weather Stations

Station Location Temp. Windchill Dew Point Humidity Wind Precip. Elev Updated Type
                   

Watches & Warnings

High Wind Warning
Issued: 3:28 AM MST Feb. 7, 2016 – National Weather Service

... High Wind Warning remains in effect until 8 PM MST this
evening...

* impacts... dangerous cross winds will make travel hazardous for
high profile and Load carrying vehicles.

* Timing... west to northwest winds will increase today before
gradually diminishing this evening.

* Winds... peak gusts from 55 to 65 mph are expected with the
strongest winds found closer to the Montana and Dakota border.



Http://weather.Gov/Billings